createdAt,value
2023-04-18T00:00:59.530Z,5.88
2023-04-18T00:03:58.515Z,5.20
2023-04-18T00:06:56.919Z,5.95
2023-04-18T00:09:54.909Z,6.70
2023-04-18T00:12:53.091Z,6.18
2023-04-18T00:15:54.609Z,6.40
2023-04-18T00:18:54.435Z,7.20
2023-04-18T00:21:54.409Z,6.70
2023-04-18T00:33:29.946Z,6.72
2023-04-18T00:36:28.353Z,7.20
2023-04-18T00:39:26.563Z,6.47
2023-04-18T00:42:28.299Z,6.90
2023-04-18T00:45:26.553Z,7.05
2023-04-18T00:48:25.049Z,6.38
2023-04-18T00:51:23.248Z,6.22
2023-04-18T00:54:21.251Z,6.18
2023-04-18T00:57:19.282Z,6.55
2023-04-18T01:00:17.623Z,6.28
2023-04-18T01:03:16.158Z,5.18
2023-04-18T01:06:14.119Z,6.75
2023-04-18T01:09:12.703Z,5.47
2023-04-18T01:12:10.518Z,6.03
2023-04-18T01:15:08.924Z,5.68
2023-04-18T01:18:08.318Z,5.70
2023-04-18T01:21:06.836Z,5.43
2023-04-18T01:24:10.346Z,5.45
2023-04-18T01:27:08.386Z,6.10
2023-04-18T01:30:07.310Z,5.20
2023-04-18T01:33:06.741Z,5.65
2023-04-18T01:36:05.065Z,6.00
2023-04-18T01:39:03.070Z,6.13
2023-04-18T01:42:02.524Z,5.53
2023-04-18T01:45:00.456Z,5.75
2023-04-18T01:47:58.329Z,6.60
2023-04-18T01:50:56.345Z,6.50
2023-04-18T01:53:54.177Z,6.90
2023-04-18T01:56:52.141Z,7.03
2023-04-18T01:59:50.027Z,8.13
2023-04-18T02:02:48.098Z,8.27
2023-04-18T02:05:46.662Z,8.57
2023-04-18T02:08:44.548Z,10.52
2023-04-18T02:11:42.364Z,11.70
2023-04-18T02:14:40.310Z,11.57
2023-04-18T02:17:38.473Z,11.75
2023-04-18T02:20:36.969Z,11.38
2023-04-18T02:23:34.737Z,11.85
2023-04-18T02:26:33.181Z,11.00
2023-04-18T02:29:31.183Z,12.63
2023-04-18T02:32:29.129Z,12.73
2023-04-18T02:35:27.761Z,12.57
2023-04-18T02:38:25.663Z,10.95
2023-04-18T02:41:23.684Z,10.90
2023-04-18T02:44:21.596Z,11.02
2023-04-18T02:47:19.453Z,11.30
2023-04-18T02:50:17.557Z,11.30
2023-04-18T02:53:15.450Z,9.77
2023-04-18T02:56:17.638Z,8.98
2023-04-18T02:59:15.478Z,8.77
2023-04-18T03:02:13.484Z,7.18
2023-04-18T03:05:11.519Z,7.05
2023-04-18T03:08:09.794Z,6.30
2023-04-18T03:11:07.866Z,6.53
2023-04-18T03:14:05.848Z,7.25
2023-04-18T03:17:04.822Z,7.60
2023-04-18T03:20:02.799Z,7.82
2023-04-18T03:23:00.699Z,8.38
2023-04-18T03:25:58.658Z,9.32
2023-04-18T03:28:56.611Z,7.75
2023-04-18T03:31:54.507Z,9.43
2023-04-18T03:34:52.481Z,9.35
2023-04-18T03:37:50.398Z,9.60
2023-04-18T03:40:48.192Z,10.02
2023-04-18T03:43:46.154Z,10.90
2023-04-18T03:46:44.025Z,10.50
2023-04-18T03:49:41.976Z,11.05
2023-04-18T03:52:39.783Z,10.73
2023-04-18T03:55:37.781Z,10.15
2023-04-18T03:58:35.640Z,7.85
2023-04-18T04:01:34.661Z,6.30
2023-04-18T04:04:32.514Z,5.38
2023-04-18T04:07:30.532Z,5.00
2023-04-18T04:10:28.371Z,4.70
2023-04-18T04:13:26.277Z,5.18
2023-04-18T04:16:24.180Z,4.50
2023-04-18T04:19:23.104Z,4.35
2023-04-18T04:22:22.010Z,4.53
2023-04-18T04:25:20.145Z,5.18
2023-04-18T04:28:17.943Z,5.18
2023-04-18T04:31:16.910Z,5.03
2023-04-18T04:34:15.097Z,4.25
2023-04-18T04:37:15.000Z,4.70
2023-04-18T04:40:13.072Z,5.78
2023-04-18T04:43:13.215Z,4.10
2023-04-18T04:46:14.103Z,5.00
2023-04-18T04:49:12.683Z,5.22
2023-04-18T04:52:10.465Z,4.93
2023-04-18T04:55:08.764Z,5.25
2023-04-18T04:58:06.592Z,5.50
2023-04-18T05:01:09.579Z,4.63
2023-04-18T05:04:07.979Z,4.13
2023-04-18T05:07:06.109Z,4.78
2023-04-18T05:10:04.729Z,4.97
2023-04-18T05:13:02.648Z,4.63
2023-04-18T05:16:00.590Z,5.05
2023-04-18T05:18:59.170Z,4.20
2023-04-18T05:21:56.943Z,5.15
2023-04-18T05:24:54.846Z,4.43
2023-04-18T05:27:52.650Z,5.00
2023-04-18T05:30:50.655Z,5.20
2023-04-18T05:33:48.466Z,5.47
2023-04-18T05:36:48.392Z,4.85
2023-04-18T05:39:46.236Z,4.80
2023-04-18T05:42:44.156Z,5.00
2023-04-18T05:45:41.986Z,5.13
2023-04-18T05:48:39.947Z,5.85
2023-04-18T05:51:37.867Z,5.38
2023-04-18T05:54:35.922Z,5.18
2023-04-18T05:57:33.803Z,5.03
2023-04-18T06:00:32.060Z,5.30
2023-04-18T06:03:30.087Z,5.88
2023-04-18T06:06:28.226Z,6.15
2023-04-18T06:09:26.025Z,5.55
2023-04-18T06:12:23.955Z,6.00
2023-04-18T06:15:21.749Z,6.95
2023-04-18T06:18:19.720Z,5.90
2023-04-18T06:21:17.689Z,5.93
2023-04-18T06:24:15.929Z,5.47
2023-04-18T06:27:27.867Z,5.45
2023-04-18T06:30:28.392Z,6.50
2023-04-18T06:33:26.202Z,6.45
2023-04-18T06:36:24.219Z,7.72
2023-04-18T06:39:22.263Z,12.82
2023-04-18T06:42:22.185Z,12.48
2023-04-18T06:45:20.639Z,12.77
2023-04-18T06:48:18.586Z,13.93
2023-04-18T06:51:16.723Z,14.98
2023-04-18T06:54:15.034Z,14.10
2023-04-18T06:57:13.291Z,13.05
2023-04-18T07:00:12.167Z,11.10
2023-04-18T07:03:13.857Z,12.98
2023-04-18T07:06:12.070Z,12.48
2023-04-18T07:09:09.815Z,13.90
2023-04-18T07:12:07.877Z,13.02
2023-04-18T07:15:06.032Z,14.55
2023-04-18T07:18:03.986Z,13.90
2023-04-18T07:21:02.338Z,13.18
2023-04-18T07:24:00.334Z,15.10
2023-04-18T07:26:58.237Z,14.55
2023-04-18T07:29:56.417Z,13.13
2023-04-18T07:32:54.348Z,14.57
2023-04-18T07:35:53.664Z,14.05
2023-04-18T07:38:52.338Z,12.93
2023-04-18T07:41:50.270Z,13.05
2023-04-18T07:44:48.453Z,13.98
2023-04-18T07:47:46.614Z,12.80
2023-04-18T07:50:44.386Z,11.85
2023-04-18T07:53:58.159Z,11.55
2023-04-18T07:56:56.027Z,11.10
2023-04-18T07:59:54.664Z,11.23
2023-04-18T08:02:52.997Z,11.52
2023-04-18T08:05:52.186Z,11.05
2023-04-18T08:08:50.239Z,11.20
2023-04-18T08:11:48.611Z,10.70
2023-04-18T08:14:46.446Z,11.40
2023-04-18T08:17:45.795Z,10.85
2023-04-18T08:20:43.693Z,10.93
2023-04-18T08:23:41.797Z,10.75
2023-04-18T08:26:39.946Z,9.82
2023-04-18T08:29:37.928Z,9.95
2023-04-18T08:32:37.093Z,9.57
2023-04-18T08:35:35.969Z,9.65
2023-04-18T08:38:33.883Z,10.02
2023-04-18T08:41:37.484Z,10.02
2023-04-18T08:44:35.370Z,9.52
2023-04-18T08:47:36.826Z,8.95
2023-04-18T08:50:35.118Z,10.38
2023-04-18T08:53:34.936Z,9.75
2023-04-18T08:56:33.082Z,9.40
2023-04-18T08:59:33.033Z,9.85
2023-04-18T09:02:44.092Z,11.25
2023-04-18T09:05:42.222Z,10.85
2023-04-18T09:08:41.867Z,9.57
2023-04-18T09:11:39.821Z,9.75
2023-04-18T09:14:38.134Z,10.57
2023-04-18T09:17:39.206Z,8.93
2023-04-18T09:20:41.705Z,9.93
2023-04-18T09:23:41.057Z,10.13
2023-04-18T09:26:40.275Z,10.23
2023-04-18T09:29:49.939Z,9.98
2023-04-18T09:32:59.677Z,9.82
2023-04-18T09:36:17.481Z,9.02
2023-04-18T09:39:28.862Z,9.70
2023-04-18T09:42:28.799Z,11.23
2023-04-18T09:45:27.643Z,10.70
2023-04-18T09:48:25.814Z,10.85
2023-04-18T09:51:24.195Z,11.52
2023-04-18T09:54:25.336Z,11.98
2023-04-18T09:57:27.042Z,13.73
2023-04-18T10:00:27.940Z,12.98
2023-04-18T10:03:35.278Z,14.32
2023-04-18T10:06:39.120Z,14.27
2023-04-18T10:09:37.375Z,13.82
2023-04-18T10:12:36.747Z,14.15
2023-04-18T10:15:34.764Z,15.65
2023-04-18T10:18:32.803Z,16.13
2023-04-18T10:21:31.988Z,15.63
2023-04-18T10:24:48.922Z,15.63
2023-04-18T10:27:57.417Z,15.75
2023-04-18T10:31:03.443Z,15.05
2023-04-18T10:34:05.634Z,16.08
2023-04-18T10:37:06.059Z,17.33
2023-04-18T10:40:07.349Z,17.80
2023-04-18T10:43:07.319Z,18.02
2023-04-18T10:46:23.921Z,17.75
2023-04-18T10:49:30.240Z,18.08
2023-04-18T10:52:30.184Z,18.38
2023-04-18T10:55:31.523Z,17.08
2023-04-18T10:58:29.465Z,16.70
2023-04-18T11:01:32.385Z,18.65
2023-04-18T11:04:31.044Z,18.70
2023-04-18T11:07:46.830Z,18.05
2023-04-18T11:10:57.070Z,17.48
2023-04-18T11:13:58.264Z,17.60
2023-04-18T11:16:56.314Z,18.23
2023-04-18T11:20:19.760Z,17.52
2023-04-18T11:23:23.364Z,16.05
2023-04-18T11:26:25.367Z,17.00
2023-04-18T11:29:23.466Z,15.88
2023-04-18T11:32:24.873Z,15.65
2023-04-18T11:35:22.860Z,16.48
2023-04-18T11:38:22.251Z,17.17
2023-04-18T11:41:22.642Z,16.83
2023-04-18T11:44:28.255Z,15.30
2023-04-18T11:47:29.285Z,16.38
2023-04-18T11:50:28.312Z,17.05
2023-04-18T11:53:36.242Z,18.17
2023-04-18T11:56:36.563Z,16.52
2023-04-18T11:59:34.857Z,16.75
2023-04-18T12:02:49.529Z,15.13
2023-04-18T12:05:48.337Z,15.13
2023-04-18T12:08:49.271Z,14.93
2023-04-18T12:11:59.175Z,15.32
2023-04-18T12:15:08.694Z,15.75
2023-04-18T12:18:08.999Z,16.77
2023-04-18T12:21:06.942Z,17.63
2023-04-18T12:24:16.406Z,18.05
2023-04-18T12:27:14.757Z,17.02
2023-04-18T12:30:13.565Z,15.20
2023-04-18T12:33:11.885Z,16.05
2023-04-18T12:36:10.888Z,16.33
2023-04-18T12:39:08.816Z,17.08
2023-04-18T12:42:06.811Z,17.95
2023-04-18T12:45:08.371Z,17.90
2023-04-18T12:48:06.935Z,17.25
2023-04-18T12:51:04.947Z,18.08
2023-04-18T12:54:02.835Z,19.77
2023-04-18T12:57:02.094Z,16.55
2023-04-18T13:00:00.342Z,16.55
2023-04-18T13:02:58.749Z,16.70
2023-04-18T13:05:56.753Z,17.17
2023-04-18T13:08:54.663Z,15.25
2023-04-18T13:11:52.421Z,17.48
2023-04-18T13:15:05.951Z,16.77
2023-04-18T13:18:06.658Z,16.50
2023-04-18T13:21:04.805Z,16.55
2023-04-18T13:24:02.604Z,16.48
2023-04-18T13:27:01.693Z,15.98
2023-04-18T13:29:59.645Z,16.77
2023-04-18T13:32:57.600Z,16.73
2023-04-18T13:35:55.777Z,17.50
2023-04-18T13:38:53.718Z,16.63
2023-04-18T13:41:51.850Z,19.15
2023-04-18T13:44:50.750Z,17.13
2023-04-18T13:47:48.657Z,16.35
2023-04-18T13:50:46.698Z,18.23
2023-04-18T13:53:44.495Z,20.33
2023-04-18T13:56:42.931Z,24.30
2023-04-18T13:59:41.251Z,24.27
2023-04-18T14:02:39.281Z,21.98
2023-04-18T14:05:37.855Z,19.98
2023-04-18T14:08:35.858Z,18.58
2023-04-18T14:11:33.896Z,17.40
2023-04-18T14:14:31.982Z,17.25
2023-04-18T14:17:29.965Z,20.98
2023-04-18T14:20:34.823Z,19.38
2023-04-18T14:23:32.661Z,19.08
2023-04-18T14:26:30.879Z,18.30
2023-04-18T14:29:28.681Z,18.85
2023-04-18T14:32:27.719Z,18.15
2023-04-18T14:35:25.678Z,17.15
2023-04-18T14:38:23.679Z,18.40
2023-04-18T14:41:21.601Z,17.75
2023-04-18T14:44:19.468Z,17.98
2023-04-18T14:47:17.394Z,19.85
2023-04-18T14:50:16.077Z,25.40
2023-04-18T14:53:14.321Z,22.35
2023-04-18T14:56:12.621Z,23.98
2023-04-18T14:59:10.645Z,22.65
2023-04-18T15:02:08.684Z,20.75
2023-04-18T15:05:07.804Z,20.35
2023-04-18T15:08:07.465Z,21.70
2023-04-18T15:11:08.001Z,20.92
2023-04-18T15:14:06.087Z,20.52
2023-04-18T15:17:08.896Z,21.42
2023-04-18T15:20:07.920Z,22.08
2023-04-18T15:23:05.979Z,19.88
2023-04-18T15:26:03.958Z,22.42
2023-04-18T15:29:04.437Z,19.27
2023-04-18T15:32:02.728Z,20.70
2023-04-18T15:35:00.805Z,22.33
2023-04-18T15:37:58.752Z,20.92
2023-04-18T15:40:56.913Z,21.83
2023-04-18T15:43:55.806Z,23.77
2023-04-18T15:46:53.585Z,22.75
2023-04-18T15:49:51.596Z,21.15
2023-04-18T15:52:49.443Z,21.50
2023-04-18T15:55:47.575Z,21.13
2023-04-18T15:58:45.442Z,21.70
2023-04-18T16:01:45.671Z,20.48
2023-04-18T16:04:43.841Z,22.38
2023-04-18T16:07:42.873Z,22.85
2023-04-18T16:10:40.744Z,22.85
2023-04-18T16:13:38.628Z,22.20
2023-04-18T16:16:36.766Z,20.08
2023-04-18T16:19:38.779Z,21.00
2023-04-18T16:22:37.411Z,20.08
2023-04-18T16:25:36.393Z,20.05
2023-04-18T16:28:38.147Z,22.30
2023-04-18T16:31:36.155Z,20.95
2023-04-18T16:34:34.940Z,19.92
2023-04-18T16:37:32.934Z,18.70
2023-04-18T16:40:32.424Z,20.55
2023-04-18T16:43:31.732Z,19.38
2023-04-18T16:46:32.724Z,20.63
2023-04-18T16:49:30.780Z,20.02
2023-04-18T16:52:28.651Z,19.70
2023-04-18T16:55:27.056Z,22.10
2023-04-18T16:58:24.880Z,22.50
2023-04-18T17:01:22.855Z,21.17
2023-04-18T17:04:21.920Z,20.50
2023-04-18T17:07:20.905Z,17.15
2023-04-18T17:10:19.948Z,17.33
2023-04-18T17:13:17.787Z,17.58
2023-04-18T17:16:15.770Z,16.55
2023-04-18T17:19:14.203Z,15.32
2023-04-18T17:22:12.577Z,14.45
2023-04-18T17:25:11.550Z,13.77
2023-04-18T17:28:09.309Z,14.98
2023-04-18T17:31:07.619Z,13.52
2023-04-18T17:34:06.404Z,12.88
2023-04-18T17:37:04.278Z,10.88
2023-04-18T17:40:06.753Z,10.50
2023-04-18T17:43:04.615Z,10.75
2023-04-18T17:46:04.065Z,9.65
2023-04-18T17:49:02.116Z,8.75
2023-04-18T17:51:59.871Z,7.47
2023-04-18T17:54:57.928Z,7.38
2023-04-18T17:57:56.647Z,7.28
2023-04-18T18:00:54.644Z,6.80
2023-04-18T18:03:54.232Z,7.15
2023-04-18T18:06:56.787Z,7.38
2023-04-18T18:09:54.798Z,6.82
2023-04-18T18:12:52.741Z,7.30
2023-04-18T18:15:50.677Z,7.10
2023-04-18T18:18:48.681Z,5.75
2023-04-18T18:21:47.656Z,7.22
2023-04-18T18:24:46.162Z,7.05
2023-04-18T18:27:43.999Z,6.32
2023-04-18T18:30:41.893Z,6.78
2023-04-18T18:33:39.735Z,6.53
2023-04-18T18:36:37.824Z,5.97
2023-04-18T18:39:37.113Z,5.80
2023-04-18T18:42:35.030Z,5.82
2023-04-18T18:45:33.024Z,5.80
2023-04-18T18:48:31.058Z,4.80
2023-04-18T18:51:30.300Z,5.57
2023-04-18T18:54:28.799Z,5.78
2023-04-18T18:57:26.657Z,5.90
2023-04-18T19:00:25.499Z,4.72
2023-04-18T19:03:23.994Z,4.80
2023-04-18T19:06:22.106Z,4.60
2023-04-18T19:09:19.865Z,4.70
2023-04-18T19:12:17.814Z,4.45
2023-04-18T19:15:15.733Z,4.65
2023-04-18T19:18:13.596Z,4.30
2023-04-18T19:21:11.699Z,4.30
2023-04-18T19:24:09.943Z,3.90
2023-04-18T19:27:07.734Z,4.18
2023-04-18T19:30:06.213Z,3.92
2023-04-18T19:33:04.093Z,3.85
2023-04-18T19:36:02.787Z,3.40
2023-04-18T19:39:00.622Z,3.88
2023-04-18T19:41:58.536Z,3.47
2023-04-18T19:44:56.942Z,4.20
2023-04-18T19:47:54.854Z,3.42
2023-04-18T19:50:53.006Z,4.30
2023-04-18T19:53:51.960Z,4.75
2023-04-18T19:56:50.405Z,4.35
2023-04-18T19:59:48.357Z,4.75
2023-04-18T20:02:46.235Z,4.80
2023-04-18T20:05:44.888Z,4.47
2023-04-18T20:08:42.784Z,5.00
2023-04-18T20:11:40.699Z,3.83
2023-04-18T20:14:38.490Z,3.90
2023-04-18T20:17:36.519Z,4.32
2023-04-18T20:20:34.384Z,3.92
2023-04-18T20:23:32.284Z,4.20
2023-04-18T20:26:30.048Z,4.57
2023-04-18T20:29:28.178Z,4.18
2023-04-18T20:32:27.095Z,4.28
2023-04-18T20:35:25.064Z,4.03
2023-04-18T20:38:26.069Z,4.35
2023-04-18T20:41:27.500Z,4.07
2023-04-18T20:44:25.371Z,4.20
2023-04-18T20:47:23.305Z,4.55
2023-04-18T20:50:21.182Z,4.00
2023-04-18T20:53:21.455Z,4.00
2023-04-18T20:56:19.248Z,4.40
2023-04-18T20:59:17.130Z,4.47
2023-04-18T21:02:15.166Z,4.20
2023-04-18T21:05:13.181Z,3.92
2023-04-18T21:08:11.606Z,4.28
2023-04-18T21:11:09.603Z,4.18
2023-04-18T21:14:07.387Z,4.20
2023-04-18T21:17:05.302Z,4.47
2023-04-18T21:20:03.851Z,4.55
2023-04-18T21:23:01.804Z,4.25
2023-04-18T21:25:59.599Z,4.22
2023-04-18T21:29:00.613Z,4.10
2023-04-18T21:31:58.674Z,3.95
2023-04-18T21:34:58.399Z,4.20
2023-04-18T21:37:56.687Z,4.05
2023-04-18T21:40:54.608Z,4.53
2023-04-18T21:43:53.220Z,3.90
2023-04-18T21:46:51.160Z,4.03
2023-04-18T21:49:49.846Z,4.00
2023-04-18T21:52:47.783Z,3.97
2023-04-18T21:55:45.634Z,3.97
2023-04-18T21:58:43.642Z,3.80
2023-04-18T22:01:41.423Z,4.03
2023-04-18T22:04:43.133Z,3.60
2023-04-18T22:07:54.536Z,3.50
2023-04-18T22:10:56.670Z,3.60
2023-04-18T22:13:54.845Z,3.80
2023-04-18T22:16:52.761Z,3.20
2023-04-18T22:19:51.173Z,3.22
2023-04-18T22:22:49.109Z,3.70
2023-04-18T22:25:46.886Z,4.05
2023-04-18T22:28:45.455Z,4.22
2023-04-18T22:31:43.707Z,3.42
2023-04-18T22:34:41.681Z,3.55
2023-04-18T22:37:39.512Z,3.92
2023-04-18T22:40:37.430Z,3.47
2023-04-18T22:43:35.308Z,3.50
2023-04-18T22:46:33.541Z,3.47
2023-04-18T22:49:31.411Z,3.83
2023-04-18T22:52:30.556Z,3.22
2023-04-18T22:55:28.396Z,3.22
2023-04-18T22:58:26.395Z,4.00
2023-04-18T23:01:24.228Z,3.40
2023-04-18T23:04:22.673Z,3.53
2023-04-18T23:07:20.757Z,3.60
2023-04-18T23:10:18.717Z,3.20
2023-04-18T23:13:16.555Z,3.60
2023-04-18T23:16:14.507Z,3.83
2023-04-18T23:19:12.748Z,3.60
2023-04-18T23:22:10.679Z,3.22
2023-04-18T23:25:08.684Z,3.08
2023-04-18T23:28:07.579Z,3.22
2023-04-18T23:31:05.717Z,3.40
2023-04-18T23:34:03.680Z,4.13
2023-04-18T23:37:01.700Z,3.05
2023-04-18T23:40:00.938Z,3.22
2023-04-18T23:42:58.829Z,3.17
2023-04-18T23:45:56.765Z,3.33
2023-04-18T23:48:54.572Z,3.50
2023-04-18T23:51:52.531Z,2.95
2023-04-18T23:54:50.321Z,3.10
2023-04-18T23:57:48.245Z,3.10
